sensor_id;sensor_type;location;lat;lon;timestamp;temperature;humidity
36416;DHT22;22447;44.530;18.620;2023-04-16T00:00:21;8.70;99.90
36416;DHT22;22447;44.530;18.620;2023-04-16T00:02:47;8.60;99.90
36416;DHT22;22447;44.530;18.620;2023-04-16T00:05:13;8.50;99.90
36416;DHT22;22447;44.530;18.620;2023-04-16T00:07:39;8.50;99.90
36416;DHT22;22447;44.530;18.620;2023-04-16T00:10:05;8.50;99.90
36416;DHT22;22447;44.530;18.620;2023-04-16T00:12:31;8.40;99.90
36416;DHT22;22447;44.530;18.620;2023-04-16T00:14:57;8.50;99.90
36416;DHT22;22447;44.530;18.620;2023-04-16T00:17:23;8.40;99.90
36416;DHT22;22447;44.530;18.620;2023-04-16T00:19:49;8.40;99.90
36416;DHT22;22447;44.530;18.620;2023-04-16T00:22:15;8.40;99.90
36416;DHT22;22447;44.530;18.620;2023-04-16T00:24:40;8.50;99.90
36416;DHT22;22447;44.530;18.620;2023-04-16T00:27:06;8.50;99.90
36416;DHT22;22447;44.530;18.620;2023-04-16T00:29:32;8.50;99.90
36416;DHT22;22447;44.530;18.620;2023-04-16T00:32:00;8.50;99.90
36416;DHT22;22447;44.530;18.620;2023-04-16T00:34:26;8.70;99.90
36416;DHT22;22447;44.530;18.620;2023-04-16T00:36:51;8.80;99.90
36416;DHT22;22447;44.530;18.620;2023-04-16T00:39:17;8.70;99.90
36416;DHT22;22447;44.530;18.620;2023-04-16T00:41:43;8.50;99.90
36416;DHT22;22447;44.530;18.620;2023-04-16T00:44:09;8.40;99.90
36416;DHT22;22447;44.530;18.620;2023-04-16T00:46:35;8.40;99.90
36416;DHT22;22447;44.530;18.620;2023-04-16T00:49:01;8.40;99.90
36416;DHT22;22447;44.530;18.620;2023-04-16T00:51:28;8.40;99.90
36416;DHT22;22447;44.530;18.620;2023-04-16T00:53:54;8.40;99.90
36416;DHT22;22447;44.530;18.620;2023-04-16T00:56:20;8.40;99.90
36416;DHT22;22447;44.530;18.620;2023-04-16T00:58:48;8.30;99.90
36416;DHT22;22447;44.530;18.620;2023-04-16T01:01:14;8.20;99.90
36416;DHT22;22447;44.530;18.620;2023-04-16T01:03:44;8.10;99.90
36416;DHT22;22447;44.530;18.620;2023-04-16T01:06:10;8.10;99.90
36416;DHT22;22447;44.530;18.620;2023-04-16T01:08:36;8.20;99.90
36416;DHT22;22447;44.530;18.620;2023-04-16T01:11:02;8.20;99.90
36416;DHT22;22447;44.530;18.620;2023-04-16T01:13:28;8.20;99.90
36416;DHT22;22447;44.530;18.620;2023-04-16T01:15:54;8.20;99.90
36416;DHT22;22447;44.530;18.620;2023-04-16T01:18:21;8.20;99.90
36416;DHT22;22447;44.530;18.620;2023-04-16T01:20:47;8.10;99.90
36416;DHT22;22447;44.530;18.620;2023-04-16T01:23:13;8.10;99.90
36416;DHT22;22447;44.530;18.620;2023-04-16T01:25:39;8.10;99.90
36416;DHT22;22447;44.530;18.620;2023-04-16T01:28:06;8.00;99.90
36416;DHT22;22447;44.530;18.620;2023-04-16T01:30:32;7.90;99.90
36416;DHT22;22447;44.530;18.620;2023-04-16T01:33:12;7.90;99.90
36416;DHT22;22447;44.530;18.620;2023-04-16T01:35:39;7.80;99.90
36416;DHT22;22447;44.530;18.620;2023-04-16T01:38:06;7.90;99.90
36416;DHT22;22447;44.530;18.620;2023-04-16T01:40:32;7.90;99.90
36416;DHT22;22447;44.530;18.620;2023-04-16T01:42:58;7.80;99.90
36416;DHT22;22447;44.530;18.620;2023-04-16T01:45:24;7.80;99.90
36416;DHT22;22447;44.530;18.620;2023-04-16T01:47:50;7.80;99.90
36416;DHT22;22447;44.530;18.620;2023-04-16T01:50:16;7.90;99.90
36416;DHT22;22447;44.530;18.620;2023-04-16T01:52:42;7.90;99.90
36416;DHT22;22447;44.530;18.620;2023-04-16T01:55:08;7.80;99.90
36416;DHT22;22447;44.530;18.620;2023-04-16T01:57:34;7.70;99.90
36416;DHT22;22447;44.530;18.620;2023-04-16T02:00:02;7.70;99.90
36416;DHT22;22447;44.530;18.620;2023-04-16T02:02:30;7.60;99.90
36416;DHT22;22447;44.530;18.620;2023-04-16T02:04:56;7.60;99.90
36416;DHT22;22447;44.530;18.620;2023-04-16T02:07:22;7.60;99.90
36416;DHT22;22447;44.530;18.620;2023-04-16T02:09:48;7.60;99.90
36416;DHT22;22447;44.530;18.620;2023-04-16T02:12:17;7.60;99.90
36416;DHT22;22447;44.530;18.620;2023-04-16T02:14:43;7.70;99.90
36416;DHT22;22447;44.530;18.620;2023-04-16T02:17:10;7.60;99.90
36416;DHT22;22447;44.530;18.620;2023-04-16T02:19:39;7.80;99.90
36416;DHT22;22447;44.530;18.620;2023-04-16T02:22:06;7.60;99.90
36416;DHT22;22447;44.530;18.620;2023-04-16T02:24:32;7.60;99.90
36416;DHT22;22447;44.530;18.620;2023-04-16T02:27:01;7.60;99.90
36416;DHT22;22447;44.530;18.620;2023-04-16T02:29:27;7.60;99.90
36416;DHT22;22447;44.530;18.620;2023-04-16T02:32:00;7.50;99.90
36416;DHT22;22447;44.530;18.620;2023-04-16T02:34:27;7.50;99.90
36416;DHT22;22447;44.530;18.620;2023-04-16T02:36:53;7.40;99.90
36416;DHT22;22447;44.530;18.620;2023-04-16T02:39:19;7.50;99.90
36416;DHT22;22447;44.530;18.620;2023-04-16T02:41:45;7.50;99.90
36416;DHT22;22447;44.530;18.620;2023-04-16T02:44:12;7.50;99.90
36416;DHT22;22447;44.530;18.620;2023-04-16T02:46:37;7.40;99.90
36416;DHT22;22447;44.530;18.620;2023-04-16T02:49:03;7.60;99.90
36416;DHT22;22447;44.530;18.620;2023-04-16T02:51:29;7.60;99.90
36416;DHT22;22447;44.530;18.620;2023-04-16T02:53:55;7.50;99.90
36416;DHT22;22447;44.530;18.620;2023-04-16T02:56:21;7.50;99.90
36416;DHT22;22447;44.530;18.620;2023-04-16T02:58:47;7.50;99.90
36416;DHT22;22447;44.530;18.620;2023-04-16T03:01:12;7.50;99.90
36416;DHT22;22447;44.530;18.620;2023-04-16T03:03:38;7.50;99.90
36416;DHT22;22447;44.530;18.620;2023-04-16T03:06:04;7.50;99.90
36416;DHT22;22447;44.530;18.620;2023-04-16T03:08:30;7.50;99.90
36416;DHT22;22447;44.530;18.620;2023-04-16T03:10:55;7.60;99.90
36416;DHT22;22447;44.530;18.620;2023-04-16T03:13:21;7.70;99.90
36416;DHT22;22447;44.530;18.620;2023-04-16T03:15:47;7.80;99.90
36416;DHT22;22447;44.530;18.620;2023-04-16T03:18:14;7.70;99.90
36416;DHT22;22447;44.530;18.620;2023-04-16T03:20:40;7.60;99.90
36416;DHT22;22447;44.530;18.620;2023-04-16T03:23:05;7.70;99.90
36416;DHT22;22447;44.530;18.620;2023-04-16T03:25:31;7.80;99.90
36416;DHT22;22447;44.530;18.620;2023-04-16T03:27:57;7.80;99.90
36416;DHT22;22447;44.530;18.620;2023-04-16T03:30:23;7.70;99.90
36416;DHT22;22447;44.530;18.620;2023-04-16T03:32:49;7.80;99.90
36416;DHT22;22447;44.530;18.620;2023-04-16T03:35:15;7.70;99.90
36416;DHT22;22447;44.530;18.620;2023-04-16T03:37:41;7.80;99.90
36416;DHT22;22447;44.530;18.620;2023-04-16T03:40:07;7.90;99.90
36416;DHT22;22447;44.530;18.620;2023-04-16T03:42:33;7.90;99.90
36416;DHT22;22447;44.530;18.620;2023-04-16T03:44:59;7.80;99.90
36416;DHT22;22447;44.530;18.620;2023-04-16T03:47:26;7.80;99.90
36416;DHT22;22447;44.530;18.620;2023-04-16T03:49:55;7.70;99.90
36416;DHT22;22447;44.530;18.620;2023-04-16T03:52:21;7.80;99.90
36416;DHT22;22447;44.530;18.620;2023-04-16T03:54:47;7.90;99.90
36416;DHT22;22447;44.530;18.620;2023-04-16T03:57:22;7.80;99.90
36416;DHT22;22447;44.530;18.620;2023-04-16T03:59:48;7.80;99.90
36416;DHT22;22447;44.530;18.620;2023-04-16T04:02:16;7.80;99.90
36416;DHT22;22447;44.530;18.620;2023-04-16T04:04:42;7.70;99.90
36416;DHT22;22447;44.530;18.620;2023-04-16T04:07:08;7.70;99.90
36416;DHT22;22447;44.530;18.620;2023-04-16T04:09:35;7.60;99.90
36416;DHT22;22447;44.530;18.620;2023-04-16T04:12:02;7.70;99.90
36416;DHT22;22447;44.530;18.620;2023-04-16T04:14:29;7.80;99.90
36416;DHT22;22447;44.530;18.620;2023-04-16T04:16:54;7.80;99.90
36416;DHT22;22447;44.530;18.620;2023-04-16T04:19:20;7.80;99.90
36416;DHT22;22447;44.530;18.620;2023-04-16T04:21:47;7.70;99.90
36416;DHT22;22447;44.530;18.620;2023-04-16T04:24:15;7.80;99.90
36416;DHT22;22447;44.530;18.620;2023-04-16T04:26:41;7.90;99.90
36416;DHT22;22447;44.530;18.620;2023-04-16T04:29:08;7.90;99.90
36416;DHT22;22447;44.530;18.620;2023-04-16T04:31:34;7.90;99.90
36416;DHT22;22447;44.530;18.620;2023-04-16T04:34:01;7.90;99.90
36416;DHT22;22447;44.530;18.620;2023-04-16T04:36:27;7.90;99.90
36416;DHT22;22447;44.530;18.620;2023-04-16T04:38:53;7.90;99.90
36416;DHT22;22447;44.530;18.620;2023-04-16T04:41:20;7.90;99.90
36416;DHT22;22447;44.530;18.620;2023-04-16T04:43:46;8.00;99.90
36416;DHT22;22447;44.530;18.620;2023-04-16T04:46:12;8.20;99.90
36416;DHT22;22447;44.530;18.620;2023-04-16T04:48:39;8.20;99.90
36416;DHT22;22447;44.530;18.620;2023-04-16T04:51:05;8.10;99.90
36416;DHT22;22447;44.530;18.620;2023-04-16T04:53:30;8.10;99.90
36416;DHT22;22447;44.530;18.620;2023-04-16T04:55:56;8.20;99.90
36416;DHT22;22447;44.530;18.620;2023-04-16T04:58:22;8.20;99.90
36416;DHT22;22447;44.530;18.620;2023-04-16T05:00:48;8.10;99.90
36416;DHT22;22447;44.530;18.620;2023-04-16T05:03:18;8.20;99.90
36416;DHT22;22447;44.530;18.620;2023-04-16T05:05:44;8.20;99.90
36416;DHT22;22447;44.530;18.620;2023-04-16T05:08:10;8.30;99.90
36416;DHT22;22447;44.530;18.620;2023-04-16T05:10:36;8.40;99.90
36416;DHT22;22447;44.530;18.620;2023-04-16T05:13:01;8.30;99.90
36416;DHT22;22447;44.530;18.620;2023-04-16T05:15:27;8.40;99.90
36416;DHT22;22447;44.530;18.620;2023-04-16T05:17:53;8.40;99.90
36416;DHT22;22447;44.530;18.620;2023-04-16T05:20:21;8.40;99.90
36416;DHT22;22447;44.530;18.620;2023-04-16T05:22:47;8.50;99.90
36416;DHT22;22447;44.530;18.620;2023-04-16T05:25:13;8.60;99.90
36416;DHT22;22447;44.530;18.620;2023-04-16T05:27:39;8.70;99.90
36416;DHT22;22447;44.530;18.620;2023-04-16T05:30:05;8.80;99.90
36416;DHT22;22447;44.530;18.620;2023-04-16T05:32:31;8.90;99.90
36416;DHT22;22447;44.530;18.620;2023-04-16T05:34:57;9.00;99.90
36416;DHT22;22447;44.530;18.620;2023-04-16T05:37:23;9.20;99.90
36416;DHT22;22447;44.530;18.620;2023-04-16T05:39:48;9.20;99.90
36416;DHT22;22447;44.530;18.620;2023-04-16T05:42:14;9.30;99.90
36416;DHT22;22447;44.530;18.620;2023-04-16T05:44:40;9.40;99.90
36416;DHT22;22447;44.530;18.620;2023-04-16T05:47:06;9.50;99.90
36416;DHT22;22447;44.530;18.620;2023-04-16T05:49:36;9.50;99.90
36416;DHT22;22447;44.530;18.620;2023-04-16T05:52:02;9.60;99.90
36416;DHT22;22447;44.530;18.620;2023-04-16T05:54:28;9.70;99.90
36416;DHT22;22447;44.530;18.620;2023-04-16T05:56:54;9.70;99.90
36416;DHT22;22447;44.530;18.620;2023-04-16T05:59:20;9.80;99.90
36416;DHT22;22447;44.530;18.620;2023-04-16T06:01:46;9.80;99.90
36416;DHT22;22447;44.530;18.620;2023-04-16T06:04:12;9.90;99.90
36416;DHT22;22447;44.530;18.620;2023-04-16T06:06:38;10.00;99.90
36416;DHT22;22447;44.530;18.620;2023-04-16T06:09:06;10.00;99.90
36416;DHT22;22447;44.530;18.620;2023-04-16T06:11:32;10.10;99.90
36416;DHT22;22447;44.530;18.620;2023-04-16T06:13:58;10.20;99.90
36416;DHT22;22447;44.530;18.620;2023-04-16T06:16:24;10.40;99.90
36416;DHT22;22447;44.530;18.620;2023-04-16T06:18:49;10.50;99.90
36416;DHT22;22447;44.530;18.620;2023-04-16T06:21:15;10.50;99.90
36416;DHT22;22447;44.530;18.620;2023-04-16T06:23:41;10.50;99.90
36416;DHT22;22447;44.530;18.620;2023-04-16T06:26:07;10.50;99.90
36416;DHT22;22447;44.530;18.620;2023-04-16T06:28:32;10.60;99.90
36416;DHT22;22447;44.530;18.620;2023-04-16T06:30:58;10.70;99.90
36416;DHT22;22447;44.530;18.620;2023-04-16T06:33:24;10.90;99.90
36416;DHT22;22447;44.530;18.620;2023-04-16T06:35:50;11.00;99.90
36416;DHT22;22447;44.530;18.620;2023-04-16T06:38:17;11.00;99.90
36416;DHT22;22447;44.530;18.620;2023-04-16T06:40:42;11.00;99.90
36416;DHT22;22447;44.530;18.620;2023-04-16T06:43:08;11.00;99.90
36416;DHT22;22447;44.530;18.620;2023-04-16T06:45:34;11.00;99.90
36416;DHT22;22447;44.530;18.620;2023-04-16T06:48:00;11.00;99.90
36416;DHT22;22447;44.530;18.620;2023-04-16T06:50:27;11.00;99.90
36416;DHT22;22447;44.530;18.620;2023-04-16T06:52:53;11.10;99.90
36416;DHT22;22447;44.530;18.620;2023-04-16T06:55:19;11.00;99.90
36416;DHT22;22447;44.530;18.620;2023-04-16T06:57:45;11.20;99.90
36416;DHT22;22447;44.530;18.620;2023-04-16T07:00:11;10.90;99.90
36416;DHT22;22447;44.530;18.620;2023-04-16T07:02:37;11.10;99.90
36416;DHT22;22447;44.530;18.620;2023-04-16T07:05:03;11.20;99.90
36416;DHT22;22447;44.530;18.620;2023-04-16T07:07:29;11.20;99.90
36416;DHT22;22447;44.530;18.620;2023-04-16T07:09:55;11.20;99.90
36416;DHT22;22447;44.530;18.620;2023-04-16T07:12:21;11.20;99.90
36416;DHT22;22447;44.530;18.620;2023-04-16T07:14:47;11.10;99.90
36416;DHT22;22447;44.530;18.620;2023-04-16T07:17:12;11.10;99.90
36416;DHT22;22447;44.530;18.620;2023-04-16T07:19:38;11.20;99.90
36416;DHT22;22447;44.530;18.620;2023-04-16T07:22:04;11.30;99.90
36416;DHT22;22447;44.530;18.620;2023-04-16T07:24:30;11.30;99.90
36416;DHT22;22447;44.530;18.620;2023-04-16T07:26:56;11.40;99.90
36416;DHT22;22447;44.530;18.620;2023-04-16T07:29:22;11.60;99.90
36416;DHT22;22447;44.530;18.620;2023-04-16T07:31:48;11.60;99.90
36416;DHT22;22447;44.530;18.620;2023-04-16T07:34:14;11.70;99.90
36416;DHT22;22447;44.530;18.620;2023-04-16T07:36:40;11.80;99.90
36416;DHT22;22447;44.530;18.620;2023-04-16T07:39:05;11.80;99.90
36416;DHT22;22447;44.530;18.620;2023-04-16T07:41:31;11.80;99.90
36416;DHT22;22447;44.530;18.620;2023-04-16T07:43:57;12.10;99.90
36416;DHT22;22447;44.530;18.620;2023-04-16T07:46:23;12.10;99.90
36416;DHT22;22447;44.530;18.620;2023-04-16T07:48:49;12.20;99.90
36416;DHT22;22447;44.530;18.620;2023-04-16T07:51:15;12.30;99.90
36416;DHT22;22447;44.530;18.620;2023-04-16T07:53:40;12.60;99.90
36416;DHT22;22447;44.530;18.620;2023-04-16T07:56:08;12.90;99.90
36416;DHT22;22447;44.530;18.620;2023-04-16T07:58:33;12.90;99.90
36416;DHT22;22447;44.530;18.620;2023-04-16T08:00:59;12.80;99.90
36416;DHT22;22447;44.530;18.620;2023-04-16T08:03:26;13.10;99.90
36416;DHT22;22447;44.530;18.620;2023-04-16T08:05:51;13.30;99.90
36416;DHT22;22447;44.530;18.620;2023-04-16T08:08:17;13.30;99.60
36416;DHT22;22447;44.530;18.620;2023-04-16T08:10:43;13.60;99.50
36416;DHT22;22447;44.530;18.620;2023-04-16T08:13:09;13.70;99.30
36416;DHT22;22447;44.530;18.620;2023-04-16T08:15:34;13.70;97.80
36416;DHT22;22447;44.530;18.620;2023-04-16T08:18:00;13.60;98.30
36416;DHT22;22447;44.530;18.620;2023-04-16T08:20:26;13.70;97.50
36416;DHT22;22447;44.530;18.620;2023-04-16T08:22:52;13.60;97.90
36416;DHT22;22447;44.530;18.620;2023-04-16T08:25:18;13.60;97.70
36416;DHT22;22447;44.530;18.620;2023-04-16T08:27:44;13.80;98.10
36416;DHT22;22447;44.530;18.620;2023-04-16T08:30:10;14.00;97.70
36416;DHT22;22447;44.530;18.620;2023-04-16T08:32:36;13.90;97.40
36416;DHT22;22447;44.530;18.620;2023-04-16T08:35:02;13.70;96.70
36416;DHT22;22447;44.530;18.620;2023-04-16T08:37:28;13.60;96.80
36416;DHT22;22447;44.530;18.620;2023-04-16T08:39:54;13.50;98.20
36416;DHT22;22447;44.530;18.620;2023-04-16T08:42:26;13.40;99.90
36416;DHT22;22447;44.530;18.620;2023-04-16T08:44:55;13.70;99.20
36416;DHT22;22447;44.530;18.620;2023-04-16T08:47:23;13.80;97.60
36416;DHT22;22447;44.530;18.620;2023-04-16T08:49:50;13.90;97.60
36416;DHT22;22447;44.530;18.620;2023-04-16T08:52:20;14.00;97.80
36416;DHT22;22447;44.530;18.620;2023-04-16T08:57:18;14.70;97.20
36416;DHT22;22447;44.530;18.620;2023-04-16T08:59:46;14.80;96.00
36416;DHT22;22447;44.530;18.620;2023-04-16T09:02:12;15.30;95.40
36416;DHT22;22447;44.530;18.620;2023-04-16T09:04:40;15.40;95.10
36416;DHT22;22447;44.530;18.620;2023-04-16T09:07:07;15.70;92.00
36416;DHT22;22447;44.530;18.620;2023-04-16T09:09:33;16.40;93.00
36416;DHT22;22447;44.530;18.620;2023-04-16T09:11:59;17.10;91.30
36416;DHT22;22447;44.530;18.620;2023-04-16T09:14:25;17.40;85.00
36416;DHT22;22447;44.530;18.620;2023-04-16T09:16:52;17.50;79.40
36416;DHT22;22447;44.530;18.620;2023-04-16T09:19:18;17.80;78.30
36416;DHT22;22447;44.530;18.620;2023-04-16T09:21:44;17.70;76.90
36416;DHT22;22447;44.530;18.620;2023-04-16T09:24:10;18.30;74.10
36416;DHT22;22447;44.530;18.620;2023-04-16T09:26:36;18.80;71.70
36416;DHT22;22447;44.530;18.620;2023-04-16T09:29:03;19.00;69.40
36416;DHT22;22447;44.530;18.620;2023-04-16T09:31:29;19.70;62.40
36416;DHT22;22447;44.530;18.620;2023-04-16T09:34:01;19.90;60.40
36416;DHT22;22447;44.530;18.620;2023-04-16T09:36:27;20.60;64.70
36416;DHT22;22447;44.530;18.620;2023-04-16T09:38:53;21.30;60.80
36416;DHT22;22447;44.530;18.620;2023-04-16T09:41:23;21.50;58.70
36416;DHT22;22447;44.530;18.620;2023-04-16T09:43:53;20.80;55.00
36416;DHT22;22447;44.530;18.620;2023-04-16T09:46:20;20.70;59.70
36416;DHT22;22447;44.530;18.620;2023-04-16T09:48:46;20.90;57.90
36416;DHT22;22447;44.530;18.620;2023-04-16T09:51:11;20.70;57.40
36416;DHT22;22447;44.530;18.620;2023-04-16T09:53:37;19.00;56.90
36416;DHT22;22447;44.530;18.620;2023-04-16T09:56:06;17.90;60.40
36416;DHT22;22447;44.530;18.620;2023-04-16T09:58:34;18.70;61.30
36416;DHT22;22447;44.530;18.620;2023-04-16T10:01:00;19.60;57.50
36416;DHT22;22447;44.530;18.620;2023-04-16T10:03:30;20.10;57.30
36416;DHT22;22447;44.530;18.620;2023-04-16T10:06:14;18.70;55.60
36416;DHT22;22447;44.530;18.620;2023-04-16T10:08:50;18.60;59.30
36416;DHT22;22447;44.530;18.620;2023-04-16T10:11:18;18.90;58.00
36416;DHT22;22447;44.530;18.620;2023-04-16T10:13:44;18.80;59.20
36416;DHT22;22447;44.530;18.620;2023-04-16T10:16:10;18.90;59.30
36416;DHT22;22447;44.530;18.620;2023-04-16T10:18:36;18.60;59.00
36416;DHT22;22447;44.530;18.620;2023-04-16T10:21:03;17.70;59.40
36416;DHT22;22447;44.530;18.620;2023-04-16T10:23:30;17.80;59.50
36416;DHT22;22447;44.530;18.620;2023-04-16T10:25:57;17.80;61.30
36416;DHT22;22447;44.530;18.620;2023-04-16T10:28:23;17.90;61.90
36416;DHT22;22447;44.530;18.620;2023-04-16T10:30:49;18.40;60.20
36416;DHT22;22447;44.530;18.620;2023-04-16T10:33:19;18.40;57.40
36416;DHT22;22447;44.530;18.620;2023-04-16T10:35:45;18.60;59.00
36416;DHT22;22447;44.530;18.620;2023-04-16T10:38:24;18.70;59.40
36416;DHT22;22447;44.530;18.620;2023-04-16T10:40:56;18.60;58.80
36416;DHT22;22447;44.530;18.620;2023-04-16T10:43:22;18.50;59.50
36416;DHT22;22447;44.530;18.620;2023-04-16T10:45:49;18.30;60.00
36416;DHT22;22447;44.530;18.620;2023-04-16T10:48:17;18.30;59.30
36416;DHT22;22447;44.530;18.620;2023-04-16T10:50:52;18.30;59.70
36416;DHT22;22447;44.530;18.620;2023-04-16T10:53:19;18.00;61.20
36416;DHT22;22447;44.530;18.620;2023-04-16T10:58:29;17.80;62.20
36416;DHT22;22447;44.530;18.620;2023-04-16T11:00:57;17.70;61.50
36416;DHT22;22447;44.530;18.620;2023-04-16T11:03:23;17.60;61.50
36416;DHT22;22447;44.530;18.620;2023-04-16T11:05:49;17.40;60.70
36416;DHT22;22447;44.530;18.620;2023-04-16T11:08:15;17.40;62.30
36416;DHT22;22447;44.530;18.620;2023-04-16T11:10:41;17.50;62.50
36416;DHT22;22447;44.530;18.620;2023-04-16T11:13:06;17.40;62.00
36416;DHT22;22447;44.530;18.620;2023-04-16T11:15:33;17.40;61.10
36416;DHT22;22447;44.530;18.620;2023-04-16T11:17:59;17.40;63.90
36416;DHT22;22447;44.530;18.620;2023-04-16T11:20:26;17.40;65.40
36416;DHT22;22447;44.530;18.620;2023-04-16T11:22:56;17.30;68.40
36416;DHT22;22447;44.530;18.620;2023-04-16T11:25:25;17.20;68.60
36416;DHT22;22447;44.530;18.620;2023-04-16T11:27:51;17.20;70.10
36416;DHT22;22447;44.530;18.620;2023-04-16T11:30:18;17.20;71.70
36416;DHT22;22447;44.530;18.620;2023-04-16T11:32:44;17.00;71.30
36416;DHT22;22447;44.530;18.620;2023-04-16T11:35:14;16.60;72.70
36416;DHT22;22447;44.530;18.620;2023-04-16T11:37:40;16.70;72.50
36416;DHT22;22447;44.530;18.620;2023-04-16T11:40:07;16.50;73.70
36416;DHT22;22447;44.530;18.620;2023-04-16T11:42:34;16.40;74.30
36416;DHT22;22447;44.530;18.620;2023-04-16T11:45:05;16.40;76.10
36416;DHT22;22447;44.530;18.620;2023-04-16T11:47:31;16.20;76.10
36416;DHT22;22447;44.530;18.620;2023-04-16T11:49:57;16.20;76.70
36416;DHT22;22447;44.530;18.620;2023-04-16T11:52:39;16.10;75.50
36416;DHT22;22447;44.530;18.620;2023-04-16T11:55:05;15.90;75.60
36416;DHT22;22447;44.530;18.620;2023-04-16T11:57:31;15.80;76.00
36416;DHT22;22447;44.530;18.620;2023-04-16T11:59:57;15.70;75.50
36416;DHT22;22447;44.530;18.620;2023-04-16T12:05:05;15.40;77.80
36416;DHT22;22447;44.530;18.620;2023-04-16T12:07:45;15.50;77.10
36416;DHT22;22447;44.530;18.620;2023-04-16T12:10:11;15.50;78.00
36416;DHT22;22447;44.530;18.620;2023-04-16T12:12:36;15.60;78.30
36416;DHT22;22447;44.530;18.620;2023-04-16T12:15:02;15.50;76.10
36416;DHT22;22447;44.530;18.620;2023-04-16T12:17:29;15.60;77.50
36416;DHT22;22447;44.530;18.620;2023-04-16T12:19:59;15.30;77.10
36416;DHT22;22447;44.530;18.620;2023-04-16T12:22:29;15.20;77.60
36416;DHT22;22447;44.530;18.620;2023-04-16T12:24:58;15.20;79.10
36416;DHT22;22447;44.530;18.620;2023-04-16T12:27:24;15.30;79.20
36416;DHT22;22447;44.530;18.620;2023-04-16T12:30:05;15.20;79.60
36416;DHT22;22447;44.530;18.620;2023-04-16T12:32:31;15.20;79.30
36416;DHT22;22447;44.530;18.620;2023-04-16T12:34:58;15.10;81.60
36416;DHT22;22447;44.530;18.620;2023-04-16T12:37:23;15.10;82.00
36416;DHT22;22447;44.530;18.620;2023-04-16T12:39:49;15.00;83.70
36416;DHT22;22447;44.530;18.620;2023-04-16T12:42:15;14.90;82.70
36416;DHT22;22447;44.530;18.620;2023-04-16T12:44:41;14.80;83.20
36416;DHT22;22447;44.530;18.620;2023-04-16T12:47:06;14.80;84.40
36416;DHT22;22447;44.530;18.620;2023-04-16T12:49:34;15.00;85.10
36416;DHT22;22447;44.530;18.620;2023-04-16T12:52:01;15.10;85.90
36416;DHT22;22447;44.530;18.620;2023-04-16T12:54:27;15.10;85.70
36416;DHT22;22447;44.530;18.620;2023-04-16T12:56:58;15.30;85.30
36416;DHT22;22447;44.530;18.620;2023-04-16T12:59:24;15.30;83.50
36416;DHT22;22447;44.530;18.620;2023-04-16T13:01:49;15.30;84.00
36416;DHT22;22447;44.530;18.620;2023-04-16T13:04:15;15.20;82.60
36416;DHT22;22447;44.530;18.620;2023-04-16T13:06:43;15.30;83.70
36416;DHT22;22447;44.530;18.620;2023-04-16T13:09:10;15.10;83.60
36416;DHT22;22447;44.530;18.620;2023-04-16T13:11:36;15.20;82.00
36416;DHT22;22447;44.530;18.620;2023-04-16T13:14:01;15.20;83.40
36416;DHT22;22447;44.530;18.620;2023-04-16T13:16:27;15.30;83.30
36416;DHT22;22447;44.530;18.620;2023-04-16T13:18:53;15.30;82.20
36416;DHT22;22447;44.530;18.620;2023-04-16T13:21:19;15.10;81.50
36416;DHT22;22447;44.530;18.620;2023-04-16T13:23:45;14.70;83.70
36416;DHT22;22447;44.530;18.620;2023-04-16T13:26:10;14.70;83.50
36416;DHT22;22447;44.530;18.620;2023-04-16T13:28:39;14.60;84.70
36416;DHT22;22447;44.530;18.620;2023-04-16T13:31:05;14.80;85.20
36416;DHT22;22447;44.530;18.620;2023-04-16T13:33:31;14.60;84.10
36416;DHT22;22447;44.530;18.620;2023-04-16T13:35:56;14.60;85.30
36416;DHT22;22447;44.530;18.620;2023-04-16T13:38:22;14.60;85.80
36416;DHT22;22447;44.530;18.620;2023-04-16T13:40:48;14.50;89.40
36416;DHT22;22447;44.530;18.620;2023-04-16T13:43:14;14.50;90.50
36416;DHT22;22447;44.530;18.620;2023-04-16T13:45:43;14.50;90.90
36416;DHT22;22447;44.530;18.620;2023-04-16T13:48:09;14.70;91.50
36416;DHT22;22447;44.530;18.620;2023-04-16T13:50:35;14.70;92.30
36416;DHT22;22447;44.530;18.620;2023-04-16T13:53:01;14.50;92.00
36416;DHT22;22447;44.530;18.620;2023-04-16T13:55:27;14.50;93.50
36416;DHT22;22447;44.530;18.620;2023-04-16T13:57:55;14.30;93.20
36416;DHT22;22447;44.530;18.620;2023-04-16T14:00:21;14.40;95.30
36416;DHT22;22447;44.530;18.620;2023-04-16T14:02:47;14.30;96.90
36416;DHT22;22447;44.530;18.620;2023-04-16T14:05:13;14.10;98.30
36416;DHT22;22447;44.530;18.620;2023-04-16T14:07:39;14.00;99.90
36416;DHT22;22447;44.530;18.620;2023-04-16T14:10:05;14.00;99.90
36416;DHT22;22447;44.530;18.620;2023-04-16T14:12:31;13.90;99.90
36416;DHT22;22447;44.530;18.620;2023-04-16T14:14:57;14.00;99.90
36416;DHT22;22447;44.530;18.620;2023-04-16T14:17:23;14.00;99.90
36416;DHT22;22447;44.530;18.620;2023-04-16T14:19:49;13.90;99.90
36416;DHT22;22447;44.530;18.620;2023-04-16T14:22:14;13.80;99.90
36416;DHT22;22447;44.530;18.620;2023-04-16T14:24:42;13.80;99.90
36416;DHT22;22447;44.530;18.620;2023-04-16T14:27:08;13.80;99.90
36416;DHT22;22447;44.530;18.620;2023-04-16T14:29:34;13.80;99.90
36416;DHT22;22447;44.530;18.620;2023-04-16T14:32:01;13.70;99.90
36416;DHT22;22447;44.530;18.620;2023-04-16T14:34:26;13.60;99.90
36416;DHT22;22447;44.530;18.620;2023-04-16T14:36:52;13.70;99.90
36416;DHT22;22447;44.530;18.620;2023-04-16T14:39:18;13.60;99.90
36416;DHT22;22447;44.530;18.620;2023-04-16T14:41:44;13.70;99.90
36416;DHT22;22447;44.530;18.620;2023-04-16T14:44:09;13.70;99.90
36416;DHT22;22447;44.530;18.620;2023-04-16T14:46:35;13.80;99.90
36416;DHT22;22447;44.530;18.620;2023-04-16T14:49:03;13.80;99.90
36416;DHT22;22447;44.530;18.620;2023-04-16T14:51:29;13.80;99.90
36416;DHT22;22447;44.530;18.620;2023-04-16T14:53:56;13.80;99.90
36416;DHT22;22447;44.530;18.620;2023-04-16T14:56:21;13.80;99.90
36416;DHT22;22447;44.530;18.620;2023-04-16T14:58:47;13.80;99.90
36416;DHT22;22447;44.530;18.620;2023-04-16T15:01:13;13.80;99.90
36416;DHT22;22447;44.530;18.620;2023-04-16T15:03:39;13.60;99.90
36416;DHT22;22447;44.530;18.620;2023-04-16T15:06:06;13.60;99.90
36416;DHT22;22447;44.530;18.620;2023-04-16T15:08:33;13.50;99.90
36416;DHT22;22447;44.530;18.620;2023-04-16T15:10:58;13.40;99.90
36416;DHT22;22447;44.530;18.620;2023-04-16T15:13:24;13.30;99.90
36416;DHT22;22447;44.530;18.620;2023-04-16T15:15:58;13.20;99.90
36416;DHT22;22447;44.530;18.620;2023-04-16T15:18:24;13.10;99.90
36416;DHT22;22447;44.530;18.620;2023-04-16T15:20:50;12.90;99.90
36416;DHT22;22447;44.530;18.620;2023-04-16T15:23:16;12.90;99.90
36416;DHT22;22447;44.530;18.620;2023-04-16T15:25:42;13.00;99.90